createdAt,value
2023-03-16T00:02:24.495Z,1.99
2023-03-16T00:04:51.800Z,1.95
2023-03-16T00:07:18.672Z,1.87
2023-03-16T00:09:45.989Z,1.82
2023-03-16T00:12:17.009Z,1.81
2023-03-16T00:14:45.076Z,1.81
2023-03-16T00:17:19.433Z,1.77
2023-03-16T00:19:46.968Z,1.80
2023-03-16T00:22:15.012Z,1.76
2023-03-16T00:24:44.739Z,1.77
2023-03-16T00:27:14.819Z,1.72
2023-03-16T00:29:47.258Z,1.65
2023-03-16T00:32:16.379Z,1.68
2023-03-16T00:34:44.409Z,1.67
2023-03-16T00:37:14.149Z,1.66
2023-03-16T00:39:45.958Z,1.60
2023-03-16T00:42:14.467Z,1.56
2023-03-16T00:44:44.830Z,1.56
2023-03-16T00:47:15.243Z,1.50
2023-03-16T00:49:45.741Z,1.47
2023-03-16T00:52:16.170Z,1.43
2023-03-16T00:54:44.118Z,1.33
2023-03-16T00:57:12.604Z,1.33
2023-03-16T00:59:39.963Z,1.31
2023-03-16T01:02:07.524Z,1.27
2023-03-16T01:04:36.507Z,1.24
2023-03-16T01:07:04.499Z,1.19
2023-03-16T01:09:37.173Z,1.14
2023-03-16T01:12:08.433Z,1.11
2023-03-16T01:14:35.635Z,1.09
2023-03-16T01:17:04.552Z,1.02
2023-03-16T01:19:35.721Z,0.95
2023-03-16T01:22:04.470Z,0.86
2023-03-16T01:24:34.100Z,0.83
2023-03-16T01:27:01.367Z,0.73
2023-03-16T01:29:28.672Z,0.67
2023-03-16T01:31:57.628Z,0.65
2023-03-16T01:34:24.768Z,0.65
2023-03-16T01:36:52.061Z,0.62
2023-03-16T01:39:29.839Z,0.62
2023-03-16T01:41:57.003Z,0.63
2023-03-16T01:44:35.260Z,0.63
2023-03-16T01:47:06.071Z,0.67
2023-03-16T01:49:36.467Z,0.66
2023-03-16T01:52:09.364Z,0.70
2023-03-16T01:54:40.823Z,0.69
2023-03-16T01:57:15.843Z,0.69
2023-03-16T02:00:09.166Z,0.67
2023-03-16T02:02:43.707Z,0.64
2023-03-16T02:05:20.922Z,0.64
2023-03-16T02:07:49.400Z,0.59
2023-03-16T02:10:18.223Z,0.59
2023-03-16T02:12:45.782Z,0.55
2023-03-16T02:15:14.323Z,0.50
2023-03-16T02:17:43.013Z,0.48
2023-03-16T02:20:30.861Z,0.45
2023-03-16T02:22:58.148Z,0.41
2023-03-16T02:25:52.098Z,0.34
2023-03-16T02:28:18.936Z,0.31
2023-03-16T02:30:47.287Z,0.25
2023-03-16T02:33:16.014Z,0.22
2023-03-16T02:35:44.519Z,0.20
2023-03-16T02:38:13.827Z,0.20
2023-03-16T02:40:58.199Z,0.19
2023-03-16T02:43:28.719Z,0.16
2023-03-16T02:46:05.488Z,0.15
2023-03-16T02:48:42.902Z,0.14
2023-03-16T02:51:11.445Z,0.14
2023-03-16T02:53:38.865Z,0.14
2023-03-16T02:56:09.390Z,0.15
2023-03-16T02:58:37.375Z,0.10
2023-03-16T03:01:09.724Z,0.11
2023-03-16T03:03:39.315Z,0.09
2023-03-16T03:06:06.873Z,0.06
2023-03-16T03:08:36.368Z,0.03
2023-03-16T03:11:06.639Z,0.02
2023-03-16T03:13:33.570Z,0.01
2023-03-16T03:16:01.854Z,0.03
2023-03-16T03:18:29.014Z,0.03
2023-03-16T03:20:56.110Z,0.02
2023-03-16T03:23:26.035Z,-0.02
2023-03-16T03:25:57.301Z,-0.01
2023-03-16T03:28:24.265Z,-0.06
2023-03-16T03:30:51.788Z,-0.05
2023-03-16T03:33:22.441Z,-0.06
2023-03-16T03:35:58.110Z,-0.04
2023-03-16T03:38:26.798Z,-0.04
2023-03-16T03:40:59.601Z,-0.06
2023-03-16T03:43:29.924Z,-0.08
2023-03-16T03:45:58.335Z,-0.12
2023-03-16T03:48:25.447Z,-0.15
2023-03-16T03:50:52.845Z,-0.17
2023-03-16T03:53:42.691Z,-0.25
2023-03-16T03:56:19.502Z,-0.26
2023-03-16T03:58:46.442Z,-0.31
2023-03-16T04:01:20.064Z,-0.35
2023-03-16T04:03:47.205Z,-0.38
2023-03-16T04:06:15.880Z,-0.38
2023-03-16T04:08:43.041Z,-0.40
2023-03-16T04:11:14.485Z,-0.43
2023-03-16T04:13:41.349Z,-0.46
2023-03-16T04:16:09.528Z,-0.49
2023-03-16T04:18:42.182Z,-0.51
2023-03-16T04:21:16.859Z,-0.52
2023-03-16T04:23:46.596Z,-0.56
2023-03-16T04:26:14.263Z,-0.56
2023-03-16T04:28:44.020Z,-0.56
2023-03-16T04:31:14.681Z,-0.54
2023-03-16T04:33:44.805Z,-0.45
2023-03-16T04:36:12.530Z,-0.41
2023-03-16T04:38:43.167Z,-0.34
2023-03-16T04:41:11.644Z,-0.29
2023-03-16T04:43:48.145Z,-0.32
2023-03-16T04:46:20.447Z,-0.33
2023-03-16T04:48:47.391Z,-0.32
2023-03-16T04:51:15.563Z,-0.28
2023-03-16T04:53:51.554Z,-0.28
2023-03-16T04:56:30.471Z,-0.28
2023-03-16T04:59:02.369Z,-0.27
2023-03-16T05:01:38.386Z,-0.30
2023-03-16T05:04:06.821Z,-0.29
2023-03-16T05:06:37.061Z,-0.28
2023-03-16T05:09:12.465Z,-0.28
2023-03-16T05:11:40.719Z,-0.26
2023-03-16T05:14:10.345Z,-0.25
2023-03-16T05:16:52.301Z,-0.19
2023-03-16T05:19:20.677Z,-0.20
2023-03-16T05:21:48.429Z,-0.14
2023-03-16T05:24:16.187Z,-0.13
2023-03-16T05:26:43.549Z,-0.11
2023-03-16T05:29:13.198Z,-0.05
2023-03-16T05:31:40.516Z,-0.02
2023-03-16T05:34:14.384Z,0.00
2023-03-16T05:36:41.745Z,0.02
2023-03-16T05:39:13.455Z,0.07
2023-03-16T05:41:45.443Z,0.23
2023-03-16T05:44:25.381Z,0.31
2023-03-16T05:47:05.009Z,0.31
2023-03-16T05:49:34.290Z,0.40
2023-03-16T05:52:05.786Z,0.60
2023-03-16T05:54:34.999Z,0.86
2023-03-16T05:57:02.932Z,1.46
2023-03-16T05:59:29.840Z,1.34
2023-03-16T06:01:58.357Z,1.15
2023-03-16T06:04:27.076Z,1.15
2023-03-16T06:06:54.723Z,1.43
2023-03-16T06:09:25.462Z,2.52
2023-03-16T06:11:53.414Z,2.51
2023-03-16T06:14:21.243Z,2.27
2023-03-16T06:16:51.927Z,2.22
2023-03-16T06:19:20.298Z,2.97
2023-03-16T06:21:52.051Z,5.03
2023-03-16T06:24:19.054Z,6.44
2023-03-16T06:26:46.332Z,6.18
2023-03-16T06:29:16.928Z,6.16
2023-03-16T06:31:45.508Z,5.88
2023-03-16T06:34:12.494Z,5.71
2023-03-16T06:36:41.156Z,4.86
2023-03-16T06:39:12.242Z,5.36
2023-03-16T06:41:48.437Z,5.29
2023-03-16T06:44:17.069Z,5.12
2023-03-16T06:46:54.405Z,5.47
2023-03-16T06:49:21.397Z,4.98
2023-03-16T06:51:49.422Z,4.83
2023-03-16T06:54:16.385Z,5.93
2023-03-16T06:56:45.908Z,7.74
2023-03-16T06:59:13.577Z,9.19
2023-03-16T07:01:44.487Z,10.39
2023-03-16T07:04:12.842Z,10.63
2023-03-16T07:06:41.615Z,11.12
2023-03-16T07:09:09.308Z,11.42
2023-03-16T07:11:36.602Z,12.18
2023-03-16T07:14:03.690Z,11.69
2023-03-16T07:16:32.722Z,11.49
2023-03-16T07:19:02.726Z,11.71
2023-03-16T07:21:29.972Z,12.07
2023-03-16T07:23:57.201Z,11.76
2023-03-16T07:26:29.471Z,11.90
2023-03-16T07:29:01.845Z,12.89
2023-03-16T07:31:30.128Z,13.53
2023-03-16T07:34:00.016Z,13.27
2023-03-16T07:36:36.008Z,13.16
2023-03-16T07:39:04.719Z,13.12
2023-03-16T07:41:32.779Z,13.40
2023-03-16T07:44:14.530Z,13.12
2023-03-16T07:46:41.901Z,13.26
2023-03-16T07:49:10.495Z,13.95
2023-03-16T07:51:39.017Z,14.18
2023-03-16T07:54:08.054Z,14.60
2023-03-16T07:56:48.297Z,14.53
2023-03-16T07:59:26.482Z,14.92
2023-03-16T08:01:53.681Z,14.71
2023-03-16T08:04:20.818Z,14.77
2023-03-16T08:06:48.504Z,14.71
2023-03-16T08:09:15.460Z,14.26
2023-03-16T08:11:43.812Z,14.07
2023-03-16T08:14:11.140Z,14.53
2023-03-16T08:17:13.417Z,13.50
2023-03-16T08:19:40.711Z,13.44
2023-03-16T08:22:10.734Z,13.67
2023-03-16T08:24:43.671Z,13.37
2023-03-16T08:27:16.192Z,12.64
2023-03-16T08:29:51.556Z,11.97
2023-03-16T08:32:19.464Z,11.51
2023-03-16T08:34:48.537Z,11.19
2023-03-16T08:37:18.717Z,10.57
2023-03-16T08:39:46.697Z,10.09
2023-03-16T08:42:17.430Z,10.32
2023-03-16T08:44:48.851Z,9.93
2023-03-16T08:47:17.041Z,10.02
2023-03-16T08:49:45.123Z,10.01
2023-03-16T08:52:15.951Z,10.03
2023-03-16T08:54:59.858Z,10.18
2023-03-16T08:57:29.564Z,10.36
2023-03-16T08:59:59.076Z,10.11
2023-03-16T09:02:26.742Z,10.39
2023-03-16T09:04:53.888Z,10.35
2023-03-16T09:07:21.079Z,9.79
2023-03-16T09:09:48.012Z,9.91
2023-03-16T09:12:15.368Z,9.77
2023-03-16T09:14:46.069Z,9.75
2023-03-16T09:17:15.541Z,9.46
2023-03-16T09:19:52.036Z,9.70
2023-03-16T09:22:20.870Z,9.92
2023-03-16T09:24:48.679Z,9.59
2023-03-16T09:27:16.260Z,9.85
2023-03-16T09:29:43.642Z,9.80
2023-03-16T09:32:11.229Z,9.57
2023-03-16T09:34:39.324Z,9.04
2023-03-16T09:37:06.568Z,8.87
2023-03-16T09:39:33.511Z,8.88
2023-03-16T09:42:08.650Z,9.13
2023-03-16T09:44:42.625Z,9.52
2023-03-16T09:47:12.004Z,9.43
2023-03-16T09:49:45.514Z,9.62
2023-03-16T09:52:36.311Z,9.83
2023-03-16T09:55:12.322Z,9.77
2023-03-16T09:57:41.900Z,10.05
2023-03-16T10:00:21.346Z,10.15
2023-03-16T10:03:09.965Z,9.76
2023-03-16T10:05:38.713Z,9.30
2023-03-16T10:08:18.662Z,9.72
2023-03-16T10:10:47.048Z,9.92
2023-03-16T10:13:29.950Z,9.75
2023-03-16T10:15:57.771Z,9.39
2023-03-16T10:18:28.683Z,8.38
2023-03-16T10:20:58.577Z,8.38
2023-03-16T10:23:26.267Z,8.90
2023-03-16T10:25:54.528Z,9.03
2023-03-16T10:28:21.805Z,9.52
2023-03-16T10:30:50.350Z,9.97
2023-03-16T10:33:26.713Z,10.11
2023-03-16T10:35:54.153Z,10.02
2023-03-16T10:38:30.951Z,9.64
2023-03-16T10:40:57.952Z,9.17
2023-03-16T10:43:25.706Z,9.10
2023-03-16T10:45:58.854Z,9.30
2023-03-16T10:48:28.626Z,9.52
2023-03-16T10:50:57.570Z,9.48
2023-03-16T10:53:32.875Z,9.58
2023-03-16T10:56:02.290Z,9.75
2023-03-16T10:58:30.896Z,9.94
2023-03-16T11:00:58.255Z,9.69
2023-03-16T11:03:38.944Z,9.75
2023-03-16T11:06:07.698Z,9.89
2023-03-16T11:08:37.453Z,9.95
2023-03-16T11:11:09.391Z,9.78
2023-03-16T11:13:38.727Z,10.36
2023-03-16T11:16:24.126Z,10.52
2023-03-16T11:18:58.969Z,10.62
2023-03-16T11:21:38.816Z,9.91
2023-03-16T11:24:11.062Z,9.61
2023-03-16T11:26:40.823Z,9.63
2023-03-16T11:29:14.102Z,9.60
2023-03-16T11:31:49.344Z,9.50
2023-03-16T11:34:18.091Z,9.86
2023-03-16T11:36:51.389Z,9.93
2023-03-16T11:39:21.450Z,10.12
2023-03-16T11:41:51.834Z,9.81
2023-03-16T11:44:27.689Z,9.84
2023-03-16T11:47:07.892Z,9.67
2023-03-16T11:49:35.249Z,9.84
2023-03-16T11:52:25.282Z,10.00
2023-03-16T11:54:55.550Z,9.80
2023-03-16T11:57:41.633Z,9.61
2023-03-16T12:00:09.486Z,9.41
2023-03-16T12:02:45.284Z,9.37
2023-03-16T12:05:16.900Z,9.39
2023-03-16T12:07:51.756Z,9.00
2023-03-16T12:10:28.118Z,9.13
2023-03-16T12:12:58.339Z,9.26
2023-03-16T12:15:48.350Z,9.42
2023-03-16T12:18:15.416Z,9.53
2023-03-16T12:20:52.037Z,9.41
2023-03-16T12:23:27.955Z,9.05
2023-03-16T12:25:59.929Z,9.21
2023-03-16T12:28:27.985Z,9.50
2023-03-16T12:30:55.360Z,9.40
2023-03-16T12:33:34.424Z,9.27
2023-03-16T12:36:17.027Z,9.20
2023-03-16T12:38:44.037Z,9.32
2023-03-16T12:41:38.113Z,9.35
2023-03-16T12:44:23.854Z,9.31
2023-03-16T12:47:00.672Z,8.98
2023-03-16T12:49:32.159Z,9.09
2023-03-16T12:52:01.605Z,9.19
2023-03-16T12:54:29.143Z,9.34
2023-03-16T12:57:09.769Z,9.43
2023-03-16T12:59:42.941Z,9.41
2023-03-16T13:02:14.156Z,9.34
2023-03-16T13:04:42.905Z,9.29
2023-03-16T13:07:19.420Z,9.30
2023-03-16T13:09:49.496Z,9.27
2023-03-16T13:12:29.206Z,9.27
2023-03-16T13:14:57.077Z,9.01
2023-03-16T13:17:28.895Z,9.18
2023-03-16T13:19:59.044Z,9.27
2023-03-16T13:22:28.092Z,9.34
2023-03-16T13:24:57.667Z,9.48
2023-03-16T13:27:30.222Z,9.48
2023-03-16T13:29:59.053Z,9.47
2023-03-16T13:32:30.269Z,9.50
2023-03-16T13:34:58.953Z,9.34
2023-03-16T13:37:28.497Z,9.32
2023-03-16T13:40:05.299Z,9.22
2023-03-16T13:42:33.794Z,9.12
2023-03-16T13:45:11.216Z,9.14
2023-03-16T13:47:42.643Z,9.01
2023-03-16T13:50:16.751Z,9.05
2023-03-16T13:52:50.590Z,9.03
2023-03-16T13:55:19.553Z,9.02
2023-03-16T13:57:48.491Z,8.98
2023-03-16T14:00:20.508Z,8.95
2023-03-16T14:02:51.994Z,9.01
2023-03-16T14:05:24.513Z,8.99
2023-03-16T14:07:52.678Z,9.10
2023-03-16T14:10:21.004Z,9.04
2023-03-16T14:12:55.694Z,9.11
2023-03-16T14:15:26.057Z,9.17
2023-03-16T14:17:53.981Z,9.17
2023-03-16T14:20:22.425Z,9.23
2023-03-16T14:22:56.118Z,9.15
2023-03-16T14:25:25.449Z,9.00
2023-03-16T14:27:59.955Z,8.79
2023-03-16T14:30:30.350Z,8.70
2023-03-16T14:33:02.148Z,8.62
2023-03-16T14:35:33.601Z,8.64
2023-03-16T14:38:21.867Z,8.67
2023-03-16T14:40:58.509Z,8.63
2023-03-16T14:43:33.805Z,8.65
2023-03-16T14:46:04.091Z,8.59
2023-03-16T14:48:31.811Z,8.57
2023-03-16T14:51:00.139Z,8.55
2023-03-16T14:53:28.730Z,8.61
2023-03-16T14:55:56.664Z,8.60
2023-03-16T14:58:24.101Z,8.56
2023-03-16T15:00:54.785Z,8.52
2023-03-16T15:03:33.125Z,8.49
2023-03-16T15:06:01.417Z,8.41
2023-03-16T15:08:32.127Z,8.33
2023-03-16T15:11:01.988Z,8.35
2023-03-16T15:13:42.504Z,8.33
2023-03-16T15:16:14.082Z,8.25
2023-03-16T15:18:42.051Z,8.25
2023-03-16T15:21:13.511Z,8.19
2023-03-16T15:23:42.869Z,8.19
2023-03-16T15:26:11.231Z,8.16
2023-03-16T15:28:38.839Z,8.10
2023-03-16T15:31:06.294Z,8.10
2023-03-16T15:33:33.854Z,8.02
2023-03-16T15:36:04.672Z,7.96
2023-03-16T15:38:33.522Z,7.83
2023-03-16T15:41:00.481Z,7.80
2023-03-16T15:43:29.661Z,7.85
2023-03-16T15:46:00.027Z,7.79
2023-03-16T15:48:27.345Z,7.70
2023-03-16T15:51:07.632Z,7.68
2023-03-16T15:53:43.681Z,7.67
2023-03-16T15:56:12.187Z,7.76
2023-03-16T15:58:41.952Z,7.78
2023-03-16T16:01:17.430Z,7.75
2023-03-16T16:03:44.935Z,7.75
2023-03-16T16:06:12.140Z,7.68
2023-03-16T16:08:39.296Z,7.72
2023-03-16T16:11:10.192Z,7.70
2023-03-16T16:13:44.641Z,7.67
2023-03-16T16:16:13.642Z,7.63
2023-03-16T16:18:41.276Z,7.56
2023-03-16T16:21:14.357Z,7.42
2023-03-16T16:23:41.670Z,7.45
2023-03-16T16:26:20.777Z,7.36
2023-03-16T16:28:48.301Z,7.22
2023-03-16T16:31:16.239Z,7.19
2023-03-16T16:33:44.480Z,7.13
2023-03-16T16:36:14.479Z,7.03
2023-03-16T16:38:41.795Z,6.91
2023-03-16T16:41:09.703Z,6.96
2023-03-16T16:43:44.732Z,6.94
2023-03-16T16:46:15.411Z,6.84
2023-03-16T16:48:44.273Z,6.74
2023-03-16T16:51:17.885Z,6.57
2023-03-16T16:53:46.829Z,6.51
2023-03-16T16:56:16.226Z,6.30
2023-03-16T16:58:44.312Z,6.16
2023-03-16T17:01:15.979Z,5.94
2023-03-16T17:03:43.908Z,5.78
2023-03-16T17:06:18.359Z,5.57
2023-03-16T17:08:46.956Z,5.40
2023-03-16T17:11:17.370Z,5.31
2023-03-16T17:13:46.970Z,5.26
2023-03-16T17:16:16.688Z,5.18
2023-03-16T17:18:45.564Z,5.06
2023-03-16T17:21:14.706Z,4.96
2023-03-16T17:23:42.028Z,4.89
2023-03-16T17:26:23.441Z,4.81
2023-03-16T17:28:56.278Z,4.68
2023-03-16T17:31:25.768Z,4.58
2023-03-16T17:33:53.996Z,4.41
2023-03-16T17:36:21.862Z,4.22
2023-03-16T17:38:50.285Z,4.03
2023-03-16T17:41:23.300Z,3.87
2023-03-16T17:43:51.712Z,3.71
2023-03-16T17:46:20.802Z,3.60
2023-03-16T17:48:51.380Z,3.51
2023-03-16T17:51:21.891Z,3.37
2023-03-16T17:53:51.338Z,3.26
2023-03-16T17:56:23.188Z,3.15
2023-03-16T17:58:54.131Z,3.07
2023-03-16T18:01:23.906Z,3.06
2023-03-16T18:03:51.970Z,3.12
2023-03-16T18:06:21.253Z,3.07
2023-03-16T18:08:49.567Z,2.96
2023-03-16T18:11:21.477Z,2.86
2023-03-16T18:13:50.341Z,2.78
2023-03-16T18:16:23.763Z,2.68
2023-03-16T18:18:52.561Z,2.59
2023-03-16T18:21:22.233Z,2.48
2023-03-16T18:23:50.466Z,2.42
2023-03-16T18:26:22.361Z,2.36
2023-03-16T18:28:55.548Z,2.28
2023-03-16T18:31:25.621Z,2.24
2023-03-16T18:33:58.404Z,2.17
2023-03-16T18:36:29.307Z,2.10
2023-03-16T18:38:58.883Z,2.08
2023-03-16T18:41:31.058Z,2.09
2023-03-16T18:44:00.610Z,2.07
2023-03-16T18:46:37.329Z,2.06
2023-03-16T18:49:15.154Z,2.08
2023-03-16T18:51:43.428Z,2.01
2023-03-16T18:54:19.013Z,1.95
2023-03-16T18:56:49.309Z,1.88
2023-03-16T18:59:19.931Z,1.80
2023-03-16T19:01:48.546Z,1.74
2023-03-16T19:04:24.532Z,1.66
2023-03-16T19:06:54.686Z,1.58
2023-03-16T19:09:23.897Z,1.50
2023-03-16T19:11:52.451Z,1.44
2023-03-16T19:14:22.804Z,1.38
2023-03-16T19:16:52.985Z,1.32
2023-03-16T19:19:25.909Z,1.24
2023-03-16T19:22:03.612Z,1.19
2023-03-16T19:24:37.110Z,1.12
2023-03-16T19:27:10.265Z,1.07
2023-03-16T19:29:38.789Z,1.01
2023-03-16T19:32:17.994Z,0.96
2023-03-16T19:34:47.538Z,0.91
2023-03-16T19:37:16.380Z,0.87
2023-03-16T19:39:45.912Z,0.81
2023-03-16T19:42:22.130Z,0.77
2023-03-16T19:44:54.024Z,0.73
2023-03-16T19:47:24.935Z,0.68
2023-03-16T19:49:53.495Z,0.67
2023-03-16T19:52:23.349Z,0.62
2023-03-16T19:54:52.935Z,0.58
2023-03-16T19:57:21.624Z,0.55
2023-03-16T19:59:53.751Z,0.51
2023-03-16T20:02:29.438Z,0.47
2023-03-16T20:04:57.783Z,0.40
2023-03-16T20:07:27.650Z,0.36
2023-03-16T20:09:56.123Z,0.29
2023-03-16T20:12:28.042Z,0.23
2023-03-16T20:14:57.230Z,0.15
2023-03-16T20:17:30.467Z,0.08
2023-03-16T20:20:00.183Z,0.03
2023-03-16T20:22:29.040Z,-0.04
2023-03-16T20:24:58.441Z,-0.08
2023-03-16T20:27:28.148Z,0.05
2023-03-16T20:29:58.501Z,0.02
2023-03-16T20:32:29.035Z,-0.09
2023-03-16T20:34:57.466Z,-0.12
2023-03-16T20:37:27.701Z,-0.17
2023-03-16T20:39:57.306Z,-0.21
2023-03-16T20:42:31.645Z,-0.22
2023-03-16T20:45:00.342Z,-0.25
2023-03-16T20:47:28.695Z,-0.30
2023-03-16T20:50:00.266Z,-0.37
2023-03-16T20:52:30.982Z,-0.37
2023-03-16T20:54:59.977Z,-0.40
2023-03-16T20:57:27.672Z,-0.40
2023-03-16T20:59:55.809Z,-0.41
2023-03-16T21:02:30.761Z,-0.45
2023-03-16T21:05:00.843Z,-0.47
2023-03-16T21:07:28.662Z,-0.50
2023-03-16T21:10:01.850Z,-0.52
2023-03-16T21:12:30.990Z,-0.56
2023-03-16T21:14:59.635Z,-0.59
2023-03-16T21:17:30.258Z,-0.17
2023-03-16T21:19:58.204Z,-0.09
2023-03-16T21:22:32.198Z,-0.05
2023-03-16T21:24:59.690Z,0.08
2023-03-16T21:27:34.321Z,0.09
2023-03-16T21:30:19.689Z,0.00
2023-03-16T21:32:49.177Z,-0.03
2023-03-16T21:35:17.429Z,-0.03
2023-03-16T21:37:45.531Z,-0.04
2023-03-16T21:40:18.085Z,-0.11
2023-03-16T21:42:45.466Z,-0.17
2023-03-16T21:45:13.518Z,-0.20
2023-03-16T21:47:40.747Z,-0.23
2023-03-16T21:50:14.266Z,-0.22
2023-03-16T21:52:44.144Z,-0.20
2023-03-16T21:55:30.074Z,-0.21
2023-03-16T21:57:58.007Z,-0.25
2023-03-16T22:00:25.825Z,-0.31
2023-03-16T22:02:54.120Z,-0.36
2023-03-16T22:05:35.469Z,-0.42
2023-03-16T22:08:07.495Z,-0.42
2023-03-16T22:10:34.735Z,-0.43
2023-03-16T22:13:02.443Z,-0.45
2023-03-16T22:15:30.207Z,-0.49
2023-03-16T22:17:57.960Z,-0.50
2023-03-16T22:20:27.276Z,-0.56
2023-03-16T22:22:58.414Z,-0.60
2023-03-16T22:25:26.654Z,-0.61
2023-03-16T22:27:53.958Z,-0.55
2023-03-16T22:30:22.635Z,-0.56
2023-03-16T22:32:51.355Z,-0.55
2023-03-16T22:35:27.322Z,-0.58
2023-03-16T22:37:55.622Z,-0.49
2023-03-16T22:40:28.453Z,-0.39
2023-03-16T22:42:58.288Z,-0.27
2023-03-16T22:45:30.216Z,-0.19
2023-03-16T22:47:58.063Z,-0.24
2023-03-16T22:50:27.481Z,-0.28
2023-03-16T22:52:58.410Z,-0.33
2023-03-16T22:55:32.546Z,-0.25
2023-03-16T22:58:06.544Z,-0.28
2023-03-16T23:00:33.885Z,-0.21
2023-03-16T23:03:00.814Z,-0.14
2023-03-16T23:05:29.410Z,-0.15
2023-03-16T23:07:58.952Z,-0.10
2023-03-16T23:10:28.557Z,-0.13
2023-03-16T23:12:55.962Z,-0.11
2023-03-16T23:15:25.293Z,-0.09
2023-03-16T23:17:54.964Z,-0.09
2023-03-16T23:20:24.402Z,-0.10
2023-03-16T23:22:52.893Z,-0.16
2023-03-16T23:25:20.619Z,-0.18
2023-03-16T23:27:47.638Z,-0.20
2023-03-16T23:30:25.697Z,-0.15
2023-03-16T23:32:56.792Z,-0.22
2023-03-16T23:35:25.322Z,-0.27
2023-03-16T23:37:53.154Z,-0.33
2023-03-16T23:40:21.632Z,-0.35
2023-03-16T23:42:49.114Z,-0.40
2023-03-16T23:45:23.025Z,-0.47
2023-03-16T23:47:51.102Z,-0.47
2023-03-16T23:50:20.981Z,-0.51
2023-03-16T23:52:47.838Z,-0.38
2023-03-16T23:55:19.089Z,-0.49
2023-03-16T23:57:46.415Z,-0.52
